Time;durP1;ratioP1;P1;durP2;ratioP2;P2;SDS_P1;SDS_P2;PMS_P1;PMS_P2;Temp;Humidity;BMP_temperature;BMP_pressure;BME280_temperature;BME280_humidity;BME280_pressure;Samples;Min_cycle;Max_cycle;Signal;HPM_P1;HPM_P2
2023/03/11 00:00:24;;;;;;;2.80;1.65;;;23.70;53.30;;;;;;5071084;28;20229;-62
2023/03/11 00:02:56;;;;;;;3.70;1.50;;;23.80;53.40;;;;;;5071069;28;20197;-63
2023/03/11 00:05:28;;;;;;;2.47;1.33;;;23.80;53.40;;;;;;5071129;28;20269;-63
2023/03/11 00:08:02;;;;;;;2.97;1.30;;;23.80;53.30;;;;;;5071418;28;20217;-62
2023/03/11 00:10:34;;;;;;;2.20;1.10;;;23.80;53.30;;;;;;5071529;28;20560;-62
2023/03/11 00:13:08;;;;;;;3.03;1.27;;;23.80;53.20;;;;;;5071303;28;20225;-62
2023/03/11 00:15:40;;;;;;;2.22;1.20;;;23.90;53.20;;;;;;5070960;28;20218;-64
2023/03/11 00:18:10;;;;;;;3.25;1.42;;;23.90;53.20;;;;;;5070816;28;20217;-62
2023/03/11 00:20:43;;;;;;;2.85;1.13;;;23.90;53.10;;;;;;5070007;28;20233;-62
2023/03/11 00:23:15;;;;;;;2.35;1.17;;;24.00;53.20;;;;;;5070776;28;20203;-63
2023/03/11 00:25:47;;;;;;;2.95;1.40;;;24.00;53.10;;;;;;5070570;28;20218;-61
2023/03/11 00:28:21;;;;;;;2.35;1.42;;;24.00;53.10;;;;;;5070908;28;20187;-63
2023/03/11 00:30:51;;;;;;;2.35;0.98;;;24.00;53.10;;;;;;5071314;28;20198;-62
2023/03/11 00:33:22;;;;;;;2.45;1.10;;;24.10;53.10;;;;;;5070960;28;20195;-63
2023/03/11 00:35:53;;;;;;;2.67;1.00;;;24.10;53.20;;;;;;5071467;28;20557;-62
2023/03/11 00:38:24;;;;;;;4.15;1.30;;;24.10;53.20;;;;;;5071021;28;20198;-63
2023/03/11 00:40:54;;;;;;;1.67;1.10;;;24.10;53.10;;;;;;5071175;28;20226;-62
2023/03/11 00:43:27;;;;;;;4.68;1.50;;;24.20;53.10;;;;;;5071093;28;20682;-63
2023/03/11 00:45:58;;;;;;;1.50;1.00;;;24.20;53.20;;;;;;5070575;28;20219;-64
2023/03/11 00:48:28;;;;;;;1.52;1.00;;;24.20;53.20;;;;;;5070659;28;20195;-64
2023/03/11 00:50:59;;;;;;;2.40;1.38;;;24.20;53.10;;;;;;5073663;28;20194;-64
2023/03/11 00:53:30;;;;;;;2.50;1.05;;;24.20;53.00;;;;;;5074553;28;20191;-63
2023/03/11 00:56:00;;;;;;;1.73;1.02;;;24.20;53.00;;;;;;5074896;28;20219;-63
2023/03/11 00:58:34;;;;;;;3.00;1.17;;;24.30;53.00;;;;;;5074755;28;20669;-63
2023/03/11 01:01:10;;;;;;;1.80;1.15;;;24.30;53.00;;;;;;5074267;28;20843;-62
2023/03/11 01:03:41;;;;;;;2.90;1.05;;;24.30;53.00;;;;;;5073809;28;20232;-62
2023/03/11 01:06:12;;;;;;;2.30;1.30;;;24.40;52.90;;;;;;5074674;28;20241;-63
2023/03/11 01:08:43;;;;;;;1.67;1.00;;;24.40;52.80;;;;;;5074345;28;20210;-64
2023/03/11 01:11:13;;;;;;;2.05;1.27;;;24.50;52.80;;;;;;5074348;28;20205;-62
2023/03/11 01:13:46;;;;;;;1.80;0.90;;;24.50;52.90;;;;;;5074234;28;20674;-61
2023/03/11 01:16:16;;;;;;;2.90;1.00;;;24.50;52.90;;;;;;5074012;28;20219;-63
2023/03/11 01:18:47;;;;;;;2.38;1.23;;;24.50;53.00;;;;;;5074577;28;20195;-63
2023/03/11 01:21:18;;;;;;;2.70;1.33;;;24.50;52.90;;;;;;5073639;28;20227;-63
2023/03/11 01:23:48;;;;;;;2.40;1.00;;;24.60;52.90;;;;;;5073526;28;20663;-61
2023/03/11 01:26:19;;;;;;;2.88;1.02;;;24.60;52.90;;;;;;5073000;28;20230;-63
2023/03/11 01:28:52;;;;;;;2.05;1.00;;;24.60;52.90;;;;;;5073299;28;20213;-63
2023/03/11 01:31:22;;;;;;;1.13;1.00;;;24.60;52.90;;;;;;5073298;28;20195;-61
2023/03/11 01:33:53;;;;;;;2.42;1.17;;;24.60;52.70;;;;;;5074240;28;20206;-63
2023/03/11 01:36:24;;;;;;;2.97;1.00;;;24.70;52.70;;;;;;5073881;28;20301;-63
2023/03/11 01:38:54;;;;;;;2.70;1.08;;;24.70;52.70;;;;;;5073869;28;20199;-61
2023/03/11 01:41:25;;;;;;;2.60;0.90;;;24.70;52.60;;;;;;5073838;28;20702;-63
2023/03/11 01:43:58;;;;;;;1.73;1.00;;;24.80;52.60;;;;;;5073933;28;20199;-60
2023/03/11 01:46:30;;;;;;;2.53;1.00;;;24.80;52.50;;;;;;5073605;28;20226;-63
2023/03/11 01:49:01;;;;;;;2.33;1.10;;;24.80;52.50;;;;;;5074200;28;20202;-63
2023/03/11 01:51:37;;;;;;;1.10;0.82;;;24.90;52.60;;;;;;5073734;28;20206;-61
2023/03/11 01:54:11;;;;;;;2.28;1.00;;;24.90;52.50;;;;;;5073679;28;20198;-62
2023/03/11 01:56:42;;;;;;;3.25;1.00;;;24.90;52.50;;;;;;5073223;28;20246;-63
2023/03/11 01:59:19;;;;;;;2.20;1.02;;;24.90;52.40;;;;;;5073788;28;20199;-64
2023/03/11 02:01:56;;;;;;;1.05;0.90;;;24.90;52.30;;;;;;5073100;28;20203;-62
2023/03/11 02:04:27;;;;;;;2.63;0.98;;;24.90;52.20;;;;;;5073630;28;20588;-62
2023/03/11 02:06:58;;;;;;;2.50;1.10;;;25.00;52.20;;;;;;5073217;28;20667;-63
2023/03/11 02:09:29;;;;;;;1.98;1.10;;;24.90;52.20;;;;;;5072907;28;20659;-62
2023/03/11 02:12:00;;;;;;;2.38;1.10;;;25.00;52.20;;;;;;5072859;28;20202;-62
2023/03/11 02:14:34;;;;;;;3.25;1.13;;;25.00;52.30;;;;;;5072927;28;20187;-63
2023/03/11 02:17:05;;;;;;;3.33;0.80;;;25.00;52.20;;;;;;5073291;28;20214;-63
2023/03/11 02:19:48;;;;;;;3.25;1.20;;;25.10;52.20;;;;;;5072063;28;20206;-60
2023/03/11 02:22:19;;;;;;;2.85;1.05;;;25.10;52.00;;;;;;5072846;28;20201;-63
2023/03/11 02:24:56;;;;;;;2.10;0.90;;;25.10;52.00;;;;;;5072718;28;20674;-62
2023/03/11 02:27:31;;;;;;;2.42;1.20;;;25.10;51.90;;;;;;5072971;28;20828;-63
2023/03/11 02:30:03;;;;;;;1.65;0.98;;;25.10;51.90;;;;;;5073205;28;20209;-60
2023/03/11 02:32:34;;;;;;;2.17;1.00;;;25.20;51.80;;;;;;5073000;28;20199;-62
2023/03/11 02:35:05;;;;;;;3.17;1.08;;;25.20;51.80;;;;;;5072774;28;20219;-62
2023/03/11 02:37:35;;;;;;;1.25;0.80;;;25.20;51.80;;;;;;5073210;28;20199;-63
2023/03/11 02:40:36;;;;;;;1.67;0.90;;;25.30;51.80;;;;;;5072663;28;20227;-64
2023/03/11 02:43:12;;;;;;;1.40;0.88;;;25.30;51.60;;;;;;5070412;28;20199;-63
2023/03/11 02:45:44;;;;;;;3.20;1.20;;;25.30;52.20;;;;;;5052435;28;20222;-60
2023/03/11 02:48:16;;;;;;;2.50;1.10;;;25.30;51.60;;;;;;5052344;28;20195;-63
2023/03/11 02:50:48;;;;;;;1.90;0.75;;;25.30;51.50;;;;;;5052213;28;20192;-63
2023/03/11 02:53:19;;;;;;;2.47;1.17;;;25.30;51.50;;;;;;5062078;28;20215;-63
2023/03/11 02:55:49;;;;;;;2.38;1.00;;;25.40;51.60;;;;;;5071731;28;20219;-63
2023/03/11 02:58:22;;;;;;;1.65;0.85;;;25.40;51.50;;;;;;5071758;28;20195;-62
2023/03/11 03:00:53;;;;;;;2.28;0.90;;;25.40;51.40;;;;;;5071536;28;20230;-63
2023/03/11 03:03:23;;;;;;;3.05;1.02;;;25.40;51.30;;;;;;5072085;28;20203;-63
2023/03/11 03:05:54;;;;;;;1.52;0.95;;;25.50;51.40;;;;;;5072228;28;20223;-64
2023/03/11 03:08:25;;;;;;;2.38;0.75;;;25.50;51.40;;;;;;5072293;28;20191;-63
2023/03/11 03:10:55;;;;;;;2.78;1.05;;;25.50;51.40;;;;;;5072597;28;20643;-63
2023/03/11 03:13:28;;;;;;;3.22;0.90;;;25.60;51.40;;;;;;5070972;28;20195;-63
2023/03/11 03:15:59;;;;;;;2.88;1.00;;;25.60;51.40;;;;;;5071912;28;20555;-62
2023/03/11 03:18:29;;;;;;;1.48;0.80;;;25.60;51.30;;;;;;5071480;28;20537;-64
2023/03/11 03:21:00;;;;;;;1.98;0.90;;;25.60;51.30;;;;;;5071823;28;20230;-61
2023/03/11 03:23:33;;;;;;;1.83;0.82;;;25.60;51.30;;;;;;5071515;28;20194;-64
2023/03/11 03:26:04;;;;;;;2.08;1.02;;;25.70;51.30;;;;;;5070052;28;20222;-63
2023/03/11 03:28:37;;;;;;;1.58;0.80;;;25.70;51.90;;;;;;5069884;28;20190;-63
2023/03/11 03:31:09;;;;;;;1.15;0.88;;;25.70;51.30;;;;;;5070197;28;20194;-62
2023/03/11 03:33:39;;;;;;;3.25;0.95;;;25.80;51.20;;;;;;5071705;28;20198;-63
2023/03/11 03:36:11;;;;;;;0.93;0.80;;;25.80;51.90;;;;;;5071602;28;20221;-64
2023/03/11 03:38:42;;;;;;;2.17;1.00;;;25.80;51.40;;;;;;5072335;28;20222;-64
2023/03/11 03:41:15;;;;;;;3.67;1.02;;;25.90;51.50;;;;;;5071799;28;20223;-62
2023/03/11 03:43:48;;;;;;;3.08;1.20;;;25.90;51.50;;;;;;5071284;28;20222;-63
2023/03/11 03:46:18;;;;;;;3.83;1.20;;;25.90;51.40;;;;;;5068544;28;20739;-63
2023/03/11 03:48:49;;;;;;;2.92;0.98;;;25.90;51.40;;;;;;5072088;28;20199;-60
2023/03/11 03:51:20;;;;;;;2.00;0.77;;;26.00;51.50;;;;;;5070035;28;20218;-61
2023/03/11 03:53:51;;;;;;;2.00;1.00;;;26.00;51.50;;;;;;5071635;28;20190;-61
2023/03/11 03:56:21;;;;;;;1.92;0.93;;;26.00;51.40;;;;;;5071254;28;20690;-61
2023/03/11 03:58:54;;;;;;;2.05;1.10;;;26.10;51.20;;;;;;5071201;28;20202;-60
2023/03/11 04:01:25;;;;;;;2.60;1.20;;;26.10;51.20;;;;;;5070824;28;20218;-60
2023/03/11 04:03:55;;;;;;;1.95;1.10;;;26.10;51.00;;;;;;5070963;28;20596;-62
2023/03/11 04:06:31;;;;;;;2.08;0.90;;;26.10;51.00;;;;;;5070981;28;20225;-63
2023/03/11 04:09:01;;;;;;;2.72;1.20;;;26.20;51.10;;;;;;5071078;28;20187;-59
2023/03/11 04:11:33;;;;;;;5.15;1.38;;;26.20;51.00;;;;;;5070695;28;20685;-63
2023/03/11 04:14:06;;;;;;;3.97;1.25;;;26.20;51.00;;;;;;5071094;28;20183;-61
2023/03/11 04:16:36;;;;;;;2.50;1.13;;;26.20;51.00;;;;;;5071505;28;20219;-62
2023/03/11 04:19:07;;;;;;;3.75;1.35;;;26.20;51.00;;;;;;5071292;28;20201;-62
2023/03/11 04:21:38;;;;;;;2.92;1.30;;;26.30;51.00;;;;;;5070524;28;20235;-63
2023/03/11 04:24:08;;;;;;;2.97;1.20;;;26.30;51.00;;;;;;5070366;28;20556;-61
2023/03/11 04:26:39;;;;;;;1.63;1.00;;;26.30;50.90;;;;;;5070657;28;20233;-62
2023/03/11 04:29:12;;;;;;;5.30;1.33;;;26.30;50.90;;;;;;5070850;28;20191;-62
2023/03/11 04:31:42;;;;;;;4.95;1.25;;;26.40;50.90;;;;;;5070669;28;20198;-59
2023/03/11 04:34:13;;;;;;;3.63;1.27;;;26.40;50.90;;;;;;5071072;28;20187;-62
2023/03/11 04:36:44;;;;;;;3.30;1.20;;;26.40;50.90;;;;;;5070836;28;20219;-59
2023/03/11 04:39:16;;;;;;;5.63;1.48;;;26.40;50.80;;;;;;5070837;28;20635;-63
2023/03/11 04:41:46;;;;;;;4.20;1.35;;;26.50;50.80;;;;;;5069794;28;20305;-62
2023/03/11 04:44:19;;;;;;;3.33;1.35;;;26.50;50.80;;;;;;5069988;28;20183;-63
2023/03/11 04:46:50;;;;;;;3.13;1.50;;;26.50;50.80;;;;;;5070016;28;20215;-59
2023/03/11 04:49:21;;;;;;;4.53;1.60;;;26.50;50.70;;;;;;5070650;28;20194;-63
2023/03/11 04:51:52;;;;;;;4.15;1.52;;;26.50;50.70;;;;;;5070853;28;20218;-59
2023/03/11 04:54:23;;;;;;;2.50;0.90;;;26.50;50.70;;;;;;5070484;28;20198;-60
2023/03/11 04:56:53;;;;;;;2.75;1.42;;;26.50;50.70;;;;;;5070853;28;20203;-59
2023/03/11 04:59:26;;;;;;;2.78;1.45;;;26.50;50.70;;;;;;5070248;28;20191;-58
2023/03/11 05:01:56;;;;;;;3.85;1.65;;;26.60;50.70;;;;;;5050628;28;20577;-58
2023/03/11 05:04:27;;;;;;;2.35;1.40;;;26.60;50.70;;;;;;5058067;28;20203;-58
2023/03/11 05:06:58;;;;;;;2.85;1.30;;;26.60;50.60;;;;;;5070095;28;20198;-59
2023/03/11 05:09:28;;;;;;;3.30;1.42;;;26.60;50.60;;;;;;5070769;28;20191;-59
2023/03/11 05:12:00;;;;;;;3.17;1.60;;;26.70;50.70;;;;;;5070576;28;20199;-58
2023/03/11 05:14:33;;;;;;;2.92;1.40;;;26.70;50.70;;;;;;5070678;28;20191;-58
2023/03/11 05:17:03;;;;;;;4.50;1.60;;;26.70;50.70;;;;;;5070644;28;20678;-58
2023/03/11 05:19:35;;;;;;;4.85;1.85;;;26.70;50.70;;;;;;5070376;28;20194;-60
2023/03/11 05:22:07;;;;;;;3.45;1.40;;;26.80;50.70;;;;;;5070351;28;20304;-59
2023/03/11 05:24:38;;;;;;;4.60;1.17;;;26.80;50.70;;;;;;5070208;28;20191;-60
2023/03/11 05:27:08;;;;;;;4.00;1.70;;;26.80;50.60;;;;;;5069162;28;20210;-63
2023/03/11 05:29:41;;;;;;;4.78;1.50;;;26.80;50.60;;;;;;5070759;28;20195;-62
2023/03/11 05:32:12;;;;;;;6.47;1.70;;;26.90;50.70;;;;;;5070633;28;20195;-63
2023/03/11 05:34:43;;;;;;;2.90;1.48;;;26.90;50.70;;;;;;5070351;28;20569;-61
2023/03/11 05:37:13;;;;;;;3.90;1.80;;;26.90;50.80;;;;;;5072192;28;20199;-62
2023/03/11 05:39:44;;;;;;;2.97;1.48;;;26.90;50.80;;;;;;5074611;28;20191;-62
2023/03/11 05:42:15;;;;;;;3.78;1.80;;;26.90;50.70;;;;;;5073750;28;20222;-62
2023/03/11 05:44:47;;;;;;;3.38;1.58;;;26.90;50.70;;;;;;5073750;28;20203;-62
2023/03/11 05:47:19;;;;;;;3.25;1.30;;;26.90;50.80;;;;;;5073894;28;20206;-64
2023/03/11 05:49:50;;;;;;;2.67;1.27;;;27.00;50.90;;;;;;5074024;28;20597;-62
2023/03/11 05:52:21;;;;;;;3.88;1.30;;;27.00;50.80;;;;;;5073698;28;20202;-61
2023/03/11 05:54:53;;;;;;;3.35;1.50;;;27.00;50.80;;;;;;5072612;28;20218;-63
2023/03/11 05:57:23;;;;;;;3.50;1.48;;;27.00;50.80;;;;;;5073311;28;20203;-62
2023/03/11 05:59:56;;;;;;;4.50;1.48;;;27.00;50.90;;;;;;5073319;28;20550;-63
2023/03/11 06:02:27;;;;;;;3.15;1.38;;;27.00;50.90;;;;;;5072910;28;20218;-62
2023/03/11 06:04:57;;;;;;;4.75;1.48;;;27.00;50.90;;;;;;5072878;28;20223;-62
2023/03/11 06:07:28;;;;;;;3.55;1.42;;;27.00;50.80;;;;;;5073289;28;20206;-62
2023/03/11 06:09:59;;;;;;;2.25;1.30;;;27.00;50.80;;;;;;5073770;28;20202;-62
2023/03/11 06:12:29;;;;;;;2.50;1.40;;;27.00;50.80;;;;;;5073601;28;20202;-62
2023/03/11 06:15:02;;;;;;;3.65;1.63;;;27.00;50.70;;;;;;5073131;28;20219;-62
2023/03/11 06:17:32;;;;;;;2.15;1.30;;;27.00;50.70;;;;;;5071537;28;20600;-62
2023/03/11 06:20:04;;;;;;;2.85;1.65;;;27.00;50.70;;;;;;5072885;28;20588;-62
2023/03/11 06:22:35;;;;;;;3.53;1.50;;;27.00;50.80;;;;;;5072814;28;20694;-62
2023/03/11 06:25:06;;;;;;;4.35;1.60;;;27.00;50.80;;;;;;5073104;28;20211;-60
2023/03/11 06:27:36;;;;;;;3.58;1.80;;;27.00;50.80;;;;;;5073177;28;20198;-62
2023/03/11 06:30:10;;;;;;;2.95;1.58;;;27.00;50.90;;;;;;5073403;28;20202;-62
2023/03/11 06:32:40;;;;;;;3.35;1.42;;;27.00;50.90;;;;;;5073470;28;20225;-62
2023/03/11 06:35:12;;;;;;;3.63;1.52;;;27.00;50.90;;;;;;5072822;28;20215;-60
2023/03/11 06:37:42;;;;;;;3.55;1.48;;;27.00;50.90;;;;;;5073235;28;20210;-62
2023/03/11 06:40:14;;;;;;;3.20;1.40;;;26.90;50.80;;;;;;5072650;28;20209;-62
2023/03/11 06:42:47;;;;;;;3.20;1.70;;;26.90;50.80;;;;;;5072824;28;20226;-62
2023/03/11 06:45:19;;;;;;;3.10;1.30;;;26.90;50.80;;;;;;5072626;28;20250;-62
2023/03/11 06:47:50;;;;;;;2.70;1.40;;;26.90;50.70;;;;;;5072315;28;20208;-61
2023/03/11 06:50:22;;;;;;;3.80;1.52;;;26.90;50.70;;;;;;5072016;28;20290;-62
2023/03/11 06:52:53;;;;;;;1.73;1.13;;;26.90;50.70;;;;;;5072087;28;20195;-61
2023/03/11 06:55:24;;;;;;;3.45;1.38;;;26.90;50.70;;;;;;5072462;28;20679;-62
2023/03/11 06:57:54;;;;;;;2.30;1.38;;;26.90;50.60;;;;;;5072463;28;20199;-62
2023/03/11 07:00:27;;;;;;;2.53;1.70;;;26.90;50.60;;;;;;5072486;28;20193;-62
2023/03/11 07:02:58;;;;;;;2.78;1.23;;;26.80;50.60;;;;;;5071662;28;20218;-62
2023/03/11 07:05:28;;;;;;;3.40;1.40;;;26.80;50.60;;;;;;5072414;28;20233;-62
2023/03/11 07:07:59;;;;;;;4.18;1.60;;;26.80;50.60;;;;;;5072501;28;20199;-62
2023/03/11 07:10:30;;;;;;;2.60;1.40;;;26.80;50.70;;;;;;5072497;28;20650;-62
2023/03/11 07:13:00;;;;;;;4.22;1.65;;;26.80;50.70;;;;;;5072261;28;20195;-62
2023/03/11 07:15:33;;;;;;;3.42;1.50;;;26.70;50.70;;;;;;5071966;28;20227;-62
2023/03/11 07:18:04;;;;;;;2.70;1.30;;;26.70;50.70;;;;;;5071705;28;20678;-62
2023/03/11 07:20:34;;;;;;;3.83;1.60;;;26.70;50.80;;;;;;5072236;28;20194;-62
2023/03/11 07:23:05;;;;;;;2.78;1.40;;;26.70;50.80;;;;;;5071902;28;20218;-62
2023/03/11 07:25:36;;;;;;;2.58;1.30;;;26.70;50.80;;;;;;5070899;28;20226;-62
2023/03/11 07:28:06;;;;;;;4.45;1.92;;;26.70;50.80;;;;;;5071594;28;20199;-62
2023/03/11 07:30:43;;;;;;;5.13;1.73;;;26.70;50.70;;;;;;5072096;28;20195;-61
2023/03/11 07:33:14;;;;;;;2.30;1.40;;;26.60;50.70;;;;;;5071726;28;20194;-62
2023/03/11 07:35:44;;;;;;;3.92;1.50;;;26.60;50.70;;;;;;5072214;28;20254;-62
2023/03/11 07:38:15;;;;;;;4.20;1.65;;;26.60;50.70;;;;;;5071921;28;20303;-62
2023/03/11 07:40:46;;;;;;;3.53;1.70;;;26.60;50.70;;;;;;5071717;28;20543;-62
2023/03/11 07:43:16;;;;;;;3.60;1.55;;;26.50;50.70;;;;;;5071235;28;20223;-62
2023/03/11 07:45:50;;;;;;;1.40;1.00;;;26.60;50.80;;;;;;5070909;28;20309;-61
2023/03/11 07:48:21;;;;;;;2.22;1.10;;;26.50;50.70;;;;;;5070998;28;20286;-62
2023/03/11 07:50:51;;;;;;;3.70;1.58;;;26.50;50.80;;;;;;5071809;28;20230;-62
2023/03/11 07:53:22;;;;;;;2.17;1.30;;;26.50;50.80;;;;;;5069311;28;20203;-62
2023/03/11 07:55:58;;;;;;;3.15;1.75;;;26.50;51.40;;;;;;5070850;28;20211;-61
2023/03/11 07:58:29;;;;;;;2.25;1.45;;;26.40;50.80;;;;;;5071287;28;20654;-61
2023/03/11 08:01:06;;;;;;;2.47;1.40;;;26.40;50.80;;;;;;5069888;28;20194;-61
2023/03/11 08:03:38;;;;;;;3.70;1.80;;;26.40;50.80;;;;;;5071916;28;20214;-62
2023/03/11 08:06:15;;;;;;;2.92;1.30;;;26.40;50.80;;;;;;5071281;28;20607;-62
2023/03/11 08:08:46;;;;;;;3.88;1.40;;;26.40;50.80;;;;;;5070349;28;20682;-61
2023/03/11 08:11:17;;;;;;;1.98;1.27;;;26.40;50.80;;;;;;5070541;28;20187;-62
2023/03/11 08:13:48;;;;;;;2.53;1.50;;;26.30;50.70;;;;;;5070600;28;20191;-61
2023/03/11 08:16:22;;;;;;;2.95;1.40;;;26.30;50.70;;;;;;5070963;28;20203;-61
2023/03/11 08:18:54;;;;;;;4.15;1.50;;;26.30;50.70;;;;;;5071272;28;20191;-61
2023/03/11 08:21:25;;;;;;;3.40;1.40;;;26.20;50.70;;;;;;5077602;28;20195;-62
2023/03/11 08:24:00;;;;;;;1.80;1.13;;;26.20;50.70;;;;;;5091126;28;20198;-61
2023/03/11 08:26:31;;;;;;;2.42;1.35;;;26.20;50.70;;;;;;5083735;28;20210;-61
2023/03/11 08:29:02;;;;;;;1.20;1.10;;;26.20;50.70;;;;;;5070991;28;20642;-61
2023/03/11 08:31:36;;;;;;;2.35;1.42;;;26.20;50.80;;;;;;5071058;28;20187;-62
2023/03/11 08:34:09;;;;;;;2.03;1.27;;;26.20;50.80;;;;;;5071189;28;20667;-61
2023/03/11 08:36:39;;;;;;;3.15;1.50;;;26.10;50.80;;;;;;5070911;28;20215;-62
2023/03/11 08:39:10;;;;;;;3.10;1.23;;;26.10;50.80;;;;;;5071310;28;20198;-61
2023/03/11 08:41:41;;;;;;;2.80;1.50;;;26.10;50.80;;;;;;5070970;28;20590;-62
2023/03/11 08:44:11;;;;;;;2.70;1.33;;;26.10;50.80;;;;;;5071101;28;20191;-61
2023/03/11 08:46:44;;;;;;;2.33;1.20;;;26.10;50.80;;;;;;5070832;28;20211;-62
2023/03/11 08:49:15;;;;;;;2.78;1.40;;;26.00;50.70;;;;;;5070449;28;20195;-61
2023/03/11 08:51:45;;;;;;;2.47;1.35;;;26.00;50.80;;;;;;5070558;28;20203;-62
2023/03/11 08:54:16;;;;;;;2.88;1.35;;;26.00;50.80;;;;;;5070254;28;20199;-61
2023/03/11 08:56:47;;;;;;;4.75;1.17;;;26.00;50.80;;;;;;5063556;28;20230;-60
2023/03/11 08:59:18;;;;;;;2.55;1.00;;;25.90;50.70;;;;;;5070210;28;20606;-62
2023/03/11 09:01:51;;;;;;;2.53;1.20;;;25.90;50.70;;;;;;5070798;28;20219;-61
2023/03/11 09:04:21;;;;;;;2.20;1.25;;;25.90;50.70;;;;;;5070281;28;20211;-61
2023/03/11 09:06:52;;;;;;;2.33;1.20;;;25.90;50.80;;;;;;5070289;28;20219;-62
2023/03/11 09:09:24;;;;;;;2.65;1.23;;;25.90;50.80;;;;;;5069362;28;20191;-62
2023/03/11 09:11:55;;;;;;;2.90;1.27;;;25.80;50.70;;;;;;5072835;28;20209;-61
2023/03/11 09:14:27;;;;;;;2.55;1.33;;;25.80;50.80;;;;;;5074593;28;20199;-62
2023/03/11 09:17:00;;;;;;;2.60;1.10;;;25.80;50.80;;;;;;5074811;28;20249;-62
2023/03/11 09:19:31;;;;;;;1.63;1.13;;;25.80;50.80;;;;;;5073920;28;20191;-62
2023/03/11 09:22:06;;;;;;;2.50;1.02;;;25.70;50.70;;;;;;5074052;28;20226;-62
2023/03/11 09:24:37;;;;;;;1.70;1.10;;;25.80;50.80;;;;;;5073390;28;20190;-62
2023/03/11 09:27:07;;;;;;;1.95;1.15;;;25.70;50.70;;;;;;5074042;28;20209;-62
2023/03/11 09:29:38;;;;;;;2.13;1.08;;;25.70;50.60;;;;;;5074089;28;20638;-61
2023/03/11 09:32:13;;;;;;;2.15;1.15;;;25.60;50.60;;;;;;5073727;28;20195;-62
2023/03/11 09:34:44;;;;;;;1.90;1.15;;;25.60;50.50;;;;;;5073226;28;20289;-62
2023/03/11 09:37:15;;;;;;;3.03;1.30;;;25.60;50.50;;;;;;5073828;28;20202;-62
2023/03/11 09:39:45;;;;;;;2.47;1.00;;;25.60;50.50;;;;;;5074080;28;20305;-62
2023/03/11 09:42:22;;;;;;;1.92;1.00;;;25.50;50.40;;;;;;5073168;28;20230;-62
2023/03/11 09:45:02;;;;;;;1.58;1.05;;;25.50;50.50;;;;;;5073325;28;20211;-61
2023/03/11 09:47:55;;;;;;;1.50;1.00;;;25.50;50.50;;;;;;5073579;28;20198;-62
2023/03/11 09:50:32;;;;;;;1.85;0.88;;;25.40;50.40;;;;;;5065541;28;20241;-61
2023/03/11 09:53:20;;;;;;;1.48;0.90;;;25.50;50.40;;;;;;5073030;28;20205;-62
2023/03/11 09:55:53;;;;;;;1.67;1.25;;;25.40;50.40;;;;;;5072711;28;20222;-62
2023/03/11 09:58:36;;;;;;;1.38;0.98;;;25.40;50.40;;;;;;5073389;28;20651;-62
2023/03/11 10:01:16;;;;;;;2.83;1.20;;;25.40;50.30;;;;;;5073682;28;20190;-60
2023/03/11 10:03:53;;;;;;;1.42;0.95;;;25.40;50.30;;;;;;5073065;28;20230;-62
2023/03/11 10:06:25;;;;;;;1.60;1.00;;;25.30;50.30;;;;;;5073059;28;20303;-61
2023/03/11 10:09:04;;;;;;;1.98;0.90;;;25.30;50.20;;;;;;5072568;28;20642;-62
2023/03/11 10:11:58;;;;;;;2.08;0.90;;;25.30;50.20;;;;;;5072695;28;20191;-61
2023/03/11 10:14:43;;;;;;;0.93;0.60;;;25.30;50.20;;;;;;5072618;28;20199;-61
2023/03/11 10:17:23;;;;;;;1.50;1.10;;;25.30;50.20;;;;;;5072817;28;20244;-62
2023/03/11 10:20:01;;;;;;;1.60;0.95;;;25.20;50.10;;;;;;5073220;28;20179;-62
2023/03/11 10:22:41;;;;;;;1.90;0.90;;;25.20;50.10;;;;;;5072368;28;20238;-62
2023/03/11 10:25:18;;;;;;;1.60;0.77;;;25.20;50.80;;;;;;5072749;28;20217;-62
2023/03/11 10:27:52;;;;;;;1.23;0.90;;;25.10;50.20;;;;;;5072753;28;20240;-58
2023/03/11 10:30:29;;;;;;;1.85;0.80;;;25.10;50.10;;;;;;5072950;28;20202;-62
2023/03/11 10:33:02;;;;;;;1.27;0.95;;;25.10;50.10;;;;;;5072817;28;20202;-62
2023/03/11 10:35:40;;;;;;;1.55;0.75;;;25.10;50.10;;;;;;5072271;28;20213;-61
2023/03/11 10:38:16;;;;;;;1.98;1.10;;;25.10;50.10;;;;;;5072676;28;20666;-62
2023/03/11 10:40:49;;;;;;;1.70;0.90;;;25.00;50.00;;;;;;5072790;28;20683;-62
2023/03/11 10:43:26;;;;;;;1.65;0.90;;;25.00;50.00;;;;;;5072851;28;20230;-61
2023/03/11 10:45:57;;;;;;;1.45;0.95;;;25.00;50.00;;;;;;5072568;28;20722;-61
2023/03/11 10:48:28;;;;;;;1.77;0.90;;;25.00;50.00;;;;;;5072656;28;20289;-61
2023/03/11 10:51:05;;;;;;;1.63;0.80;;;24.90;49.90;;;;;;5073039;28;20195;-61
2023/03/11 10:53:45;;;;;;;1.92;0.80;;;24.90;49.90;;;;;;5071813;28;20186;-62
2023/03/11 10:56:28;;;;;;;1.95;1.13;;;24.90;49.80;;;;;;5071363;28;20219;-61
2023/03/11 10:58:59;;;;;;;1.63;1.00;;;24.90;49.80;;;;;;5072276;28;20198;-61
2023/03/11 11:01:30;;;;;;;3.13;0.88;;;24.90;49.80;;;;;;5072597;28;20191;-61
2023/03/11 11:04:02;;;;;;;1.02;0.70;;;24.80;49.90;;;;;;5072111;28;20240;-61
2023/03/11 11:06:36;;;;;;;1.08;0.80;;;24.80;49.90;;;;;;5071808;28;20586;-60
2023/03/11 11:09:18;;;;;;;1.30;0.80;;;24.80;49.90;;;;;;5072124;28;20549;-60
2023/03/11 11:12:04;;;;;;;1.40;0.90;;;24.80;49.90;;;;;;5072046;28;20662;-60
2023/03/11 11:14:50;;;;;;;1.00;0.80;;;24.70;49.90;;;;;;5071762;28;20198;-59
2023/03/11 11:17:29;;;;;;;1.42;0.80;;;24.70;50.20;;;;;;5071815;28;20207;-61
2023/03/11 11:20:03;;;;;;;1.88;0.80;;;24.70;49.90;;;;;;5071721;28;20279;-61
2023/03/11 11:22:35;;;;;;;2.35;0.80;;;24.70;49.90;;;;;;5072030;28;20226;-61
2023/03/11 11:25:26;;;;;;;2.60;0.93;;;24.70;49.80;;;;;;5071516;28;20206;-60
2023/03/11 11:28:00;;;;;;;0.82;0.70;;;24.60;49.80;;;;;;5071094;28;20195;-61
2023/03/11 11:30:31;;;;;;;0.75;0.65;;;24.60;49.80;;;;;;5071811;28;20201;-61
2023/03/11 11:33:28;;;;;;;1.20;0.77;;;24.60;49.80;;;;;;5071837;28;20198;-61
2023/03/11 11:36:01;;;;;;;0.88;0.63;;;24.60;49.80;;;;;;5071462;28;20207;-61
2023/03/11 11:38:34;;;;;;;1.23;0.82;;;24.60;49.80;;;;;;5072160;28;20202;-61
2023/03/11 11:41:07;;;;;;;0.93;0.50;;;24.50;49.80;;;;;;5071620;28;20638;-60
2023/03/11 11:43:48;;;;;;;1.50;0.77;;;24.50;49.90;;;;;;5071725;28;20226;-61
2023/03/11 11:46:30;;;;;;;1.10;0.70;;;24.50;49.90;;;;;;5071519;28;20214;-61
2023/03/11 11:49:10;;;;;;;1.23;0.73;;;24.50;49.90;;;;;;5071337;28;20197;-61
2023/03/11 11:51:46;;;;;;;1.42;0.70;;;24.50;49.90;;;;;;5071412;28;20206;-61
2023/03/11 11:54:29;;;;;;;0.85;0.60;;;24.40;49.90;;;;;;5070636;28;20213;-61
2023/03/11 11:56:59;;;;;;;0.60;0.60;;;24.40;49.90;;;;;;5071007;28;20195;-61
2023/03/11 11:59:32;;;;;;;1.63;0.73;;;24.40;49.90;;;;;;5071135;28;20659;-60
2023/03/11 12:02:08;;;;;;;0.95;0.70;;;24.40;49.90;;;;;;5071104;28;20195;-58
2023/03/11 12:04:53;;;;;;;2.85;0.93;;;24.30;49.80;;;;;;5070605;28;20225;-61
2023/03/11 12:07:38;;;;;;;0.80;0.70;;;24.30;49.80;;;;;;5051409;28;20196;-61
2023/03/11 12:10:27;;;;;;;0.80;0.70;;;24.30;49.80;;;;;;5052665;28;20664;-60
2023/03/11 12:13:38;;;;;;;2.03;0.60;;;24.30;49.80;;;;;;5070787;28;20698;-60
2023/03/11 12:16:18;;;;;;;1.08;0.70;;;24.30;49.80;;;;;;5057621;28;20210;-61
2023/03/11 12:18:54;;;;;;;0.70;0.57;;;24.30;49.80;;;;;;5071070;28;20195;-60
2023/03/11 12:21:47;;;;;;;0.60;0.50;;;24.20;49.80;;;;;;5071066;28;20202;-60
2023/03/11 12:24:35;;;;;;;0.77;0.50;;;24.20;49.90;;;;;;5070036;28;20733;-60
2023/03/11 12:27:16;;;;;;;0.85;0.52;;;24.20;49.90;;;;;;5070588;28;20218;-60
2023/03/11 12:29:50;;;;;;;1.00;0.50;;;24.20;49.90;;;;;;5071123;28;20191;-60
2023/03/11 12:32:30;;;;;;;0.90;0.65;;;24.20;49.90;;;;;;5071107;28;20194;-59
2023/03/11 12:35:10;;;;;;;0.60;0.60;;;24.20;50.00;;;;;;5069553;28;20221;-59
2023/03/11 12:37:41;;;;;;;0.82;0.60;;;24.20;50.00;;;;;;5069334;28;20580;-59
2023/03/11 12:40:55;;;;;;;0.80;0.50;;;24.10;49.90;;;;;;5070196;28;20187;-60
2023/03/11 12:44:01;;;;;;;1.75;0.70;;;24.10;49.90;;;;;;5042288;28;20591;-60
2023/03/11 12:47:06;;;;;;;1.23;0.75;;;24.10;49.90;;;;;;5071356;28;20218;-60
2023/03/11 12:49:38;;;;;;;0.60;0.50;;;24.10;49.90;;;;;;5066169;28;20187;-59
2023/03/11 12:52:20;;;;;;;1.42;0.70;;;24.10;50.00;;;;;;5072919;28;20674;-59
2023/03/11 12:55:11;;;;;;;0.70;0.60;;;24.00;50.00;;;;;;5071845;28;20214;-60
2023/03/11 12:57:54;;;;;;;1.42;0.50;;;24.00;50.00;;;;;;5073333;28;20191;-59
2023/03/11 13:00:36;;;;;;;1.30;0.63;;;24.00;50.00;;;;;;5071583;28;20202;-59
2023/03/11 13:03:34;;;;;;;0.52;0.50;;;24.00;50.00;;;;;;5072177;28;20717;-59
2023/03/11 13:06:24;;;;;;;0.80;0.60;;;24.00;50.10;;;;;;5069093;28;20579;-59
2023/03/11 13:08:56;;;;;;;1.25;0.57;;;24.00;50.10;;;;;;5073334;28;20643;-59
2023/03/11 13:11:40;;;;;;;1.40;0.70;;;24.00;50.10;;;;;;5073384;28;20567;-59
2023/03/11 13:14:31;;;;;;;0.70;0.50;;;23.90;50.10;;;;;;5073732;28;20188;-59
2023/03/11 13:17:25;;;;;;;0.43;0.43;;;23.90;50.10;;;;;;5074692;28;20594;-58
2023/03/11 13:19:57;;;;;;;1.05;0.50;;;23.90;50.10;;;;;;5074430;28;20288;-59
2023/03/11 13:22:46;;;;;;;0.57;0.52;;;23.90;50.10;;;;;;5074346;28;20199;-60